Terminal Aerodrome Forecast
Issued by NWS

Home | Current Version | Previous Version | Text Only | Print | Product List | Glossary On
Versions: 1 2 3 4 5 6 7 8 9 10 11 12 13 14 15 16 17 18 19 20 21
000
FTUS43 KIND 290203 AAA
TAFBMG
TAF AMD
KBMG 290203Z 2902/2924 06003KT P6SM VCTS SCT040CB BKN250
     FM290500 06003KT P6SM SCT250
      TEMPO 2905/2908 4SM BR
     FM290800 06003KT 4SM BR SCT250
      TEMPO 2908/2912 1 1/2SM BR
     FM291400 08006KT P6SM SCT025 SCT250
     FM291700 08007KT P6SM VCTS SCT030CB SCT250
      AMD LTD TO CLD VIS AND WIND TIL 291300=

USA.gov is the U.S. government's official web portal to all federal, state and local government web resources and services.